sensor_id;sensor_type;location;lat;lon;timestamp;P1;durP1;ratioP1;P2;durP2;ratioP2
57087;SDS011;42965;52.846;6.614;2024-01-30T00:00:50;30.92;;;22.85;;
57087;SDS011;42965;52.846;6.614;2024-01-30T00:03:17;28.95;;;21.25;;
57087;SDS011;42965;52.846;6.614;2024-01-30T00:05:44;26.48;;;22.50;;
57087;SDS011;42965;52.846;6.614;2024-01-30T00:08:10;25.98;;;22.42;;
57087;SDS011;42965;52.846;6.614;2024-01-30T00:10:36;27.00;;;21.90;;
57087;SDS011;42965;52.846;6.614;2024-01-30T00:13:02;25.85;;;22.88;;
57087;SDS011;42965;52.846;6.614;2024-01-30T00:15:29;26.42;;;22.17;;
57087;SDS011;42965;52.846;6.614;2024-01-30T00:17:55;27.02;;;22.63;;
57087;SDS011;42965;52.846;6.614;2024-01-30T00:20:42;24.45;;;21.60;;
57087;SDS011;42965;52.846;6.614;2024-01-30T00:23:08;26.52;;;21.92;;
57087;SDS011;42965;52.846;6.614;2024-01-30T00:25:34;29.55;;;22.83;;
57087;SDS011;42965;52.846;6.614;2024-01-30T00:28:01;27.25;;;22.10;;
57087;SDS011;42965;52.846;6.614;2024-01-30T00:30:27;28.63;;;22.40;;
57087;SDS011;42965;52.846;6.614;2024-01-30T00:32:53;26.30;;;22.63;;
57087;SDS011;42965;52.846;6.614;2024-01-30T00:35:20;27.88;;;23.17;;
57087;SDS011;42965;52.846;6.614;2024-01-30T00:37:48;27.67;;;22.88;;
57087;SDS011;42965;52.846;6.614;2024-01-30T00:40:14;24.55;;;21.95;;
57087;SDS011;42965;52.846;6.614;2024-01-30T00:42:41;25.52;;;22.20;;
57087;SDS011;42965;52.846;6.614;2024-01-30T00:45:12;28.80;;;23.58;;
57087;SDS011;42965;52.846;6.614;2024-01-30T00:47:39;29.13;;;22.02;;
57087;SDS011;42965;52.846;6.614;2024-01-30T00:50:06;25.65;;;22.80;;
57087;SDS011;42965;52.846;6.614;2024-01-30T00:52:32;28.92;;;23.88;;
57087;SDS011;42965;52.846;6.614;2024-01-30T00:54:59;24.30;;;21.08;;
57087;SDS011;42965;52.846;6.614;2024-01-30T00:57:27;28.42;;;23.33;;
57087;SDS011;42965;52.846;6.614;2024-01-30T00:59:54;24.73;;;21.95;;
57087;SDS011;42965;52.846;6.614;2024-01-30T01:02:21;26.40;;;22.88;;
57087;SDS011;42965;52.846;6.614;2024-01-30T01:04:49;31.90;;;24.45;;
57087;SDS011;42965;52.846;6.614;2024-01-30T01:07:16;29.23;;;22.55;;
57087;SDS011;42965;52.846;6.614;2024-01-30T01:09:44;28.30;;;22.85;;
57087;SDS011;42965;52.846;6.614;2024-01-30T01:12:10;27.30;;;23.60;;
57087;SDS011;42965;52.846;6.614;2024-01-30T01:14:37;28.25;;;22.88;;
57087;SDS011;42965;52.846;6.614;2024-01-30T01:17:04;25.92;;;21.95;;
57087;SDS011;42965;52.846;6.614;2024-01-30T01:19:31;28.00;;;23.10;;
57087;SDS011;42965;52.846;6.614;2024-01-30T01:21:58;26.85;;;23.52;;
57087;SDS011;42965;52.846;6.614;2024-01-30T01:24:24;25.42;;;22.02;;
57087;SDS011;42965;52.846;6.614;2024-01-30T01:26:50;27.17;;;22.85;;
57087;SDS011;42965;52.846;6.614;2024-01-30T01:29:16;26.33;;;22.38;;
57087;SDS011;42965;52.846;6.614;2024-01-30T01:31:43;28.20;;;22.02;;
57087;SDS011;42965;52.846;6.614;2024-01-30T01:34:10;27.45;;;23.92;;
57087;SDS011;42965;52.846;6.614;2024-01-30T01:36:36;26.25;;;22.88;;
57087;SDS011;42965;52.846;6.614;2024-01-30T01:39:03;28.83;;;23.55;;
57087;SDS011;42965;52.846;6.614;2024-01-30T01:41:30;26.92;;;21.95;;
57087;SDS011;42965;52.846;6.614;2024-01-30T01:44:00;26.83;;;22.85;;
57087;SDS011;42965;52.846;6.614;2024-01-30T01:46:27;28.17;;;22.40;;
57087;SDS011;42965;52.846;6.614;2024-01-30T01:48:56;27.83;;;22.95;;
57087;SDS011;42965;52.846;6.614;2024-01-30T01:51:23;27.75;;;22.30;;
57087;SDS011;42965;52.846;6.614;2024-01-30T01:53:54;26.48;;;22.90;;
57087;SDS011;42965;52.846;6.614;2024-01-30T01:56:22;28.30;;;23.55;;
57087;SDS011;42965;52.846;6.614;2024-01-30T01:58:49;28.25;;;22.88;;
57087;SDS011;42965;52.846;6.614;2024-01-30T02:01:18;28.33;;;23.10;;
57087;SDS011;42965;52.846;6.614;2024-01-30T02:03:46;25.30;;;21.92;;
57087;SDS011;42965;52.846;6.614;2024-01-30T02:06:13;31.90;;;22.77;;
57087;SDS011;42965;52.846;6.614;2024-01-30T02:08:40;27.92;;;22.35;;
57087;SDS011;42965;52.846;6.614;2024-01-30T02:11:07;26.13;;;22.70;;
57087;SDS011;42965;52.846;6.614;2024-01-30T02:13:35;27.83;;;22.75;;
57087;SDS011;42965;52.846;6.614;2024-01-30T02:16:02;24.77;;;20.73;;
57087;SDS011;42965;52.846;6.614;2024-01-30T02:18:28;26.98;;;22.35;;
57087;SDS011;42965;52.846;6.614;2024-01-30T02:21:16;28.45;;;23.50;;
57087;SDS011;42965;52.846;6.614;2024-01-30T02:23:44;27.42;;;21.35;;
57087;SDS011;42965;52.846;6.614;2024-01-30T02:26:13;26.55;;;20.90;;
57087;SDS011;42965;52.846;6.614;2024-01-30T02:28:40;28.45;;;21.02;;
57087;SDS011;42965;52.846;6.614;2024-01-30T02:31:08;24.08;;;21.25;;
57087;SDS011;42965;52.846;6.614;2024-01-30T02:33:34;25.98;;;20.33;;
57087;SDS011;42965;52.846;6.614;2024-01-30T02:36:00;26.45;;;20.98;;
57087;SDS011;42965;52.846;6.614;2024-01-30T02:38:27;25.95;;;21.90;;
57087;SDS011;42965;52.846;6.614;2024-01-30T02:40:54;23.23;;;20.80;;
57087;SDS011;42965;52.846;6.614;2024-01-30T02:43:22;22.83;;;20.42;;
57087;SDS011;42965;52.846;6.614;2024-01-30T02:45:48;28.20;;;21.20;;
57087;SDS011;42965;52.846;6.614;2024-01-30T02:48:14;25.05;;;20.77;;
57087;SDS011;42965;52.846;6.614;2024-01-30T02:50:41;26.70;;;19.02;;
57087;SDS011;42965;52.846;6.614;2024-01-30T02:53:07;25.17;;;20.58;;
57087;SDS011;42965;52.846;6.614;2024-01-30T02:55:34;22.35;;;19.95;;
57087;SDS011;42965;52.846;6.614;2024-01-30T02:58:03;23.15;;;20.10;;
57087;SDS011;42965;52.846;6.614;2024-01-30T03:00:29;25.63;;;21.00;;
57087;SDS011;42965;52.846;6.614;2024-01-30T03:02:56;25.48;;;19.98;;
57087;SDS011;42965;52.846;6.614;2024-01-30T03:05:22;22.65;;;18.60;;
57087;SDS011;42965;52.846;6.614;2024-01-30T03:07:52;22.30;;;19.85;;
57087;SDS011;42965;52.846;6.614;2024-01-30T03:10:18;23.50;;;19.10;;
57087;SDS011;42965;52.846;6.614;2024-01-30T03:12:44;23.98;;;19.92;;
57087;SDS011;42965;52.846;6.614;2024-01-30T03:15:11;21.20;;;19.00;;
57087;SDS011;42965;52.846;6.614;2024-01-30T03:17:37;23.27;;;19.15;;
57087;SDS011;42965;52.846;6.614;2024-01-30T03:20:03;22.10;;;18.88;;
57087;SDS011;42965;52.846;6.614;2024-01-30T03:22:31;21.25;;;18.98;;
57087;SDS011;42965;52.846;6.614;2024-01-30T03:24:57;23.48;;;20.45;;
57087;SDS011;42965;52.846;6.614;2024-01-30T03:27:24;23.77;;;18.45;;
57087;SDS011;42965;52.846;6.614;2024-01-30T03:29:50;24.00;;;19.83;;
57087;SDS011;42965;52.846;6.614;2024-01-30T03:32:17;22.13;;;19.30;;
57087;SDS011;42965;52.846;6.614;2024-01-30T03:34:44;22.33;;;19.17;;
57087;SDS011;42965;52.846;6.614;2024-01-30T03:37:11;22.05;;;19.70;;
57087;SDS011;42965;52.846;6.614;2024-01-30T03:39:38;22.17;;;18.45;;
57087;SDS011;42965;52.846;6.614;2024-01-30T03:42:04;22.55;;;19.88;;
57087;SDS011;42965;52.846;6.614;2024-01-30T03:44:30;24.20;;;20.85;;
57087;SDS011;42965;52.846;6.614;2024-01-30T03:46:57;22.83;;;19.50;;
57087;SDS011;42965;52.846;6.614;2024-01-30T03:49:23;26.23;;;20.50;;
57087;SDS011;42965;52.846;6.614;2024-01-30T03:51:49;21.88;;;18.35;;
57087;SDS011;42965;52.846;6.614;2024-01-30T03:54:15;28.05;;;19.70;;
57087;SDS011;42965;52.846;6.614;2024-01-30T03:56:42;21.55;;;18.75;;
57087;SDS011;42965;52.846;6.614;2024-01-30T03:59:08;21.75;;;19.30;;
57087;SDS011;42965;52.846;6.614;2024-01-30T04:01:35;24.60;;;19.83;;
57087;SDS011;42965;52.846;6.614;2024-01-30T04:04:01;22.88;;;19.42;;
57087;SDS011;42965;52.846;6.614;2024-01-30T04:06:27;23.95;;;19.10;;
57087;SDS011;42965;52.846;6.614;2024-01-30T04:08:54;23.50;;;18.13;;
57087;SDS011;42965;52.846;6.614;2024-01-30T04:11:20;24.65;;;18.52;;
57087;SDS011;42965;52.846;6.614;2024-01-30T04:13:46;20.67;;;18.45;;
57087;SDS011;42965;52.846;6.614;2024-01-30T04:16:20;22.10;;;18.90;;
57087;SDS011;42965;52.846;6.614;2024-01-30T04:18:51;21.83;;;18.67;;
57087;SDS011;42965;52.846;6.614;2024-01-30T04:21:18;23.50;;;19.05;;
57087;SDS011;42965;52.846;6.614;2024-01-30T04:23:46;21.42;;;18.17;;
57087;SDS011;42965;52.846;6.614;2024-01-30T04:26:12;24.92;;;19.75;;
57087;SDS011;42965;52.846;6.614;2024-01-30T04:28:41;24.40;;;19.77;;
57087;SDS011;42965;52.846;6.614;2024-01-30T04:31:07;22.33;;;18.55;;
57087;SDS011;42965;52.846;6.614;2024-01-30T04:33:34;24.33;;;18.63;;
57087;SDS011;42965;52.846;6.614;2024-01-30T04:36:00;21.60;;;18.80;;
57087;SDS011;42965;52.846;6.614;2024-01-30T04:38:26;21.80;;;17.52;;
57087;SDS011;42965;52.846;6.614;2024-01-30T04:40:53;22.65;;;19.55;;
57087;SDS011;42965;52.846;6.614;2024-01-30T04:43:20;19.83;;;17.20;;
57087;SDS011;42965;52.846;6.614;2024-01-30T04:45:48;21.10;;;18.25;;
57087;SDS011;42965;52.846;6.614;2024-01-30T04:48:15;21.63;;;17.40;;
57087;SDS011;42965;52.846;6.614;2024-01-30T04:50:46;22.40;;;18.48;;
57087;SDS011;42965;52.846;6.614;2024-01-30T04:53:13;19.42;;;17.30;;
57087;SDS011;42965;52.846;6.614;2024-01-30T04:55:40;23.25;;;18.55;;
57087;SDS011;42965;52.846;6.614;2024-01-30T04:58:07;21.80;;;18.75;;
57087;SDS011;42965;52.846;6.614;2024-01-30T05:00:34;24.48;;;18.38;;
57087;SDS011;42965;52.846;6.614;2024-01-30T05:03:01;21.52;;;18.00;;
57087;SDS011;42965;52.846;6.614;2024-01-30T05:05:28;24.63;;;18.45;;
57087;SDS011;42965;52.846;6.614;2024-01-30T05:07:55;20.80;;;18.60;;
57087;SDS011;42965;52.846;6.614;2024-01-30T05:10:22;23.10;;;16.98;;
57087;SDS011;42965;52.846;6.614;2024-01-30T05:12:49;23.05;;;17.65;;
57087;SDS011;42965;52.846;6.614;2024-01-30T05:15:16;24.02;;;18.17;;
57087;SDS011;42965;52.846;6.614;2024-01-30T05:17:43;22.27;;;17.92;;
57087;SDS011;42965;52.846;6.614;2024-01-30T05:20:10;20.52;;;17.60;;
57087;SDS011;42965;52.846;6.614;2024-01-30T05:22:38;20.20;;;17.58;;
57087;SDS011;42965;52.846;6.614;2024-01-30T05:25:12;20.40;;;17.85;;
57087;SDS011;42965;52.846;6.614;2024-01-30T05:27:39;25.30;;;18.73;;
57087;SDS011;42965;52.846;6.614;2024-01-30T05:30:06;22.13;;;17.15;;
57087;SDS011;42965;52.846;6.614;2024-01-30T05:32:34;20.02;;;17.85;;
57087;SDS011;42965;52.846;6.614;2024-01-30T05:35:01;18.98;;;16.17;;
57087;SDS011;42965;52.846;6.614;2024-01-30T05:37:28;22.88;;;18.20;;
57087;SDS011;42965;52.846;6.614;2024-01-30T05:39:55;21.75;;;18.20;;
57087;SDS011;42965;52.846;6.614;2024-01-30T05:42:22;21.13;;;17.45;;
57087;SDS011;42965;52.846;6.614;2024-01-30T05:44:49;21.08;;;17.75;;
57087;SDS011;42965;52.846;6.614;2024-01-30T05:47:17;19.63;;;16.20;;
57087;SDS011;42965;52.846;6.614;2024-01-30T05:49:44;24.48;;;19.42;;
57087;SDS011;42965;52.846;6.614;2024-01-30T05:52:10;21.55;;;17.05;;
57087;SDS011;42965;52.846;6.614;2024-01-30T05:54:37;21.15;;;18.25;;
57087;SDS011;42965;52.846;6.614;2024-01-30T05:57:04;21.38;;;17.65;;
57087;SDS011;42965;52.846;6.614;2024-01-30T05:59:31;24.25;;;18.08;;
57087;SDS011;42965;52.846;6.614;2024-01-30T06:01:57;21.52;;;18.05;;
57087;SDS011;42965;52.846;6.614;2024-01-30T06:04:24;20.08;;;17.83;;
57087;SDS011;42965;52.846;6.614;2024-01-30T06:06:50;21.73;;;17.40;;
57087;SDS011;42965;52.846;6.614;2024-01-30T06:09:16;22.35;;;18.40;;
57087;SDS011;42965;52.846;6.614;2024-01-30T06:11:43;24.60;;;18.38;;
57087;SDS011;42965;52.846;6.614;2024-01-30T06:14:09;21.55;;;19.00;;
57087;SDS011;42965;52.846;6.614;2024-01-30T06:16:35;21.48;;;18.10;;
57087;SDS011;42965;52.846;6.614;2024-01-30T06:19:01;24.02;;;18.85;;
57087;SDS011;42965;52.846;6.614;2024-01-30T06:21:27;21.67;;;18.65;;
57087;SDS011;42965;52.846;6.614;2024-01-30T06:23:54;22.80;;;18.73;;
57087;SDS011;42965;52.846;6.614;2024-01-30T06:26:20;22.92;;;18.95;;
57087;SDS011;42965;52.846;6.614;2024-01-30T06:28:46;22.05;;;18.58;;
57087;SDS011;42965;52.846;6.614;2024-01-30T06:31:12;19.65;;;16.92;;
57087;SDS011;42965;52.846;6.614;2024-01-30T06:33:39;22.95;;;17.30;;
57087;SDS011;42965;52.846;6.614;2024-01-30T06:36:07;22.75;;;18.63;;
57087;SDS011;42965;52.846;6.614;2024-01-30T06:38:34;21.35;;;18.30;;
57087;SDS011;42965;52.846;6.614;2024-01-30T06:41:00;21.33;;;17.67;;
57087;SDS011;42965;52.846;6.614;2024-01-30T06:43:26;21.42;;;18.63;;
57087;SDS011;42965;52.846;6.614;2024-01-30T06:45:53;21.38;;;17.20;;
57087;SDS011;42965;52.846;6.614;2024-01-30T06:48:19;20.23;;;17.83;;
57087;SDS011;42965;52.846;6.614;2024-01-30T06:50:45;18.98;;;16.92;;
57087;SDS011;42965;52.846;6.614;2024-01-30T06:53:11;19.48;;;16.55;;
57087;SDS011;42965;52.846;6.614;2024-01-30T06:55:38;22.10;;;17.48;;
57087;SDS011;42965;52.846;6.614;2024-01-30T06:58:06;20.67;;;17.80;;
57087;SDS011;42965;52.846;6.614;2024-01-30T07:00:33;20.23;;;17.80;;
57087;SDS011;42965;52.846;6.614;2024-01-30T07:03:00;24.48;;;18.85;;
57087;SDS011;42965;52.846;6.614;2024-01-30T07:05:26;20.80;;;18.45;;
57087;SDS011;42965;52.846;6.614;2024-01-30T07:07:54;24.65;;;19.98;;
57087;SDS011;42965;52.846;6.614;2024-01-30T07:10:20;21.25;;;18.50;;
57087;SDS011;42965;52.846;6.614;2024-01-30T07:12:48;23.90;;;19.52;;
57087;SDS011;42965;52.846;6.614;2024-01-30T07:15:15;23.33;;;18.75;;
57087;SDS011;42965;52.846;6.614;2024-01-30T07:17:46;26.15;;;17.90;;
57087;SDS011;42965;52.846;6.614;2024-01-30T07:20:13;25.83;;;18.48;;
57087;SDS011;42965;52.846;6.614;2024-01-30T07:22:40;23.20;;;18.65;;
57087;SDS011;42965;52.846;6.614;2024-01-30T07:25:07;24.13;;;18.48;;
57087;SDS011;42965;52.846;6.614;2024-01-30T07:27:35;20.70;;;17.85;;
57087;SDS011;42965;52.846;6.614;2024-01-30T07:30:03;23.00;;;18.15;;
57087;SDS011;42965;52.846;6.614;2024-01-30T07:32:30;24.40;;;18.60;;
57087;SDS011;42965;52.846;6.614;2024-01-30T07:34:58;24.00;;;18.02;;
57087;SDS011;42965;52.846;6.614;2024-01-30T07:37:25;20.77;;;18.05;;
57087;SDS011;42965;52.846;6.614;2024-01-30T07:39:51;25.30;;;17.73;;
57087;SDS011;42965;52.846;6.614;2024-01-30T07:42:17;23.00;;;18.33;;
57087;SDS011;42965;52.846;6.614;2024-01-30T07:44:43;21.63;;;17.73;;
57087;SDS011;42965;52.846;6.614;2024-01-30T07:47:09;22.08;;;18.02;;
57087;SDS011;42965;52.846;6.614;2024-01-30T07:49:36;23.08;;;18.10;;
57087;SDS011;42965;52.846;6.614;2024-01-30T07:52:05;21.08;;;17.20;;
57087;SDS011;42965;52.846;6.614;2024-01-30T07:54:32;22.52;;;16.88;;
57087;SDS011;42965;52.846;6.614;2024-01-30T07:57:13;21.87;;;17.30;;
57087;SDS011;42965;52.846;6.614;2024-01-30T07:59:41;21.52;;;17.50;;
57087;SDS011;42965;52.846;6.614;2024-01-30T08:02:09;22.20;;;18.27;;
57087;SDS011;42965;52.846;6.614;2024-01-30T08:04:36;22.30;;;17.17;;
57087;SDS011;42965;52.846;6.614;2024-01-30T08:07:02;19.50;;;16.48;;
57087;SDS011;42965;52.846;6.614;2024-01-30T08:09:28;22.35;;;16.30;;
57087;SDS011;42965;52.846;6.614;2024-01-30T08:11:55;18.92;;;16.88;;
57087;SDS011;42965;52.846;6.614;2024-01-30T08:14:21;21.38;;;17.23;;
57087;SDS011;42965;52.846;6.614;2024-01-30T08:16:47;20.70;;;15.80;;
57087;SDS011;42965;52.846;6.614;2024-01-30T08:19:16;18.08;;;15.27;;
57087;SDS011;42965;52.846;6.614;2024-01-30T08:21:43;18.95;;;16.30;;
57087;SDS011;42965;52.846;6.614;2024-01-30T08:24:09;18.02;;;15.63;;
57087;SDS011;42965;52.846;6.614;2024-01-30T08:26:35;19.35;;;16.45;;
57087;SDS011;42965;52.846;6.614;2024-01-30T08:29:02;20.98;;;16.27;;
57087;SDS011;42965;52.846;6.614;2024-01-30T08:31:28;18.77;;;15.32;;
57087;SDS011;42965;52.846;6.614;2024-01-30T08:33:55;19.77;;;15.13;;
57087;SDS011;42965;52.846;6.614;2024-01-30T08:36:21;16.63;;;14.20;;
57087;SDS011;42965;52.846;6.614;2024-01-30T08:38:48;18.95;;;14.82;;
57087;SDS011;42965;52.846;6.614;2024-01-30T08:41:15;19.45;;;15.25;;
57087;SDS011;42965;52.846;6.614;2024-01-30T08:43:42;16.67;;;14.23;;
57087;SDS011;42965;52.846;6.614;2024-01-30T08:46:11;15.40;;;13.80;;
57087;SDS011;42965;52.846;6.614;2024-01-30T08:48:38;17.73;;;14.43;;
57087;SDS011;42965;52.846;6.614;2024-01-30T08:51:05;19.00;;;14.15;;
57087;SDS011;42965;52.846;6.614;2024-01-30T08:53:35;17.27;;;14.48;;
57087;SDS011;42965;52.846;6.614;2024-01-30T08:56:02;18.70;;;14.05;;
57087;SDS011;42965;52.846;6.614;2024-01-30T08:58:30;19.42;;;14.43;;
57087;SDS011;42965;52.846;6.614;2024-01-30T09:00:57;18.15;;;14.10;;
57087;SDS011;42965;52.846;6.614;2024-01-30T09:03:24;19.60;;;14.18;;
57087;SDS011;42965;52.846;6.614;2024-01-30T09:05:51;15.18;;;13.57;;
57087;SDS011;42965;52.846;6.614;2024-01-30T09:08:18;15.90;;;13.15;;
57087;SDS011;42965;52.846;6.614;2024-01-30T09:10:45;18.38;;;13.85;;
57087;SDS011;42965;52.846;6.614;2024-01-30T09:13:13;17.00;;;13.50;;
57087;SDS011;42965;52.846;6.614;2024-01-30T09:15:40;19.55;;;12.75;;
57087;SDS011;42965;52.846;6.614;2024-01-30T09:18:09;15.02;;;13.43;;
57087;SDS011;42965;52.846;6.614;2024-01-30T09:20:36;18.45;;;12.90;;
57087;SDS011;42965;52.846;6.614;2024-01-30T09:23:03;19.20;;;13.63;;
57087;SDS011;42965;52.846;6.614;2024-01-30T09:25:30;16.58;;;13.00;;
57087;SDS011;42965;52.846;6.614;2024-01-30T09:27:57;17.10;;;13.30;;
57087;SDS011;42965;52.846;6.614;2024-01-30T09:30:24;17.63;;;13.77;;
57087;SDS011;42965;52.846;6.614;2024-01-30T09:32:51;18.52;;;13.60;;
57087;SDS011;42965;52.846;6.614;2024-01-30T09:35:18;17.52;;;13.50;;
57087;SDS011;42965;52.846;6.614;2024-01-30T09:37:45;15.20;;;12.50;;
57087;SDS011;42965;52.846;6.614;2024-01-30T09:40:12;17.05;;;13.20;;
57087;SDS011;42965;52.846;6.614;2024-01-30T09:42:40;18.42;;;13.23;;
57087;SDS011;42965;52.846;6.614;2024-01-30T09:45:10;17.25;;;13.70;;
57087;SDS011;42965;52.846;6.614;2024-01-30T09:47:41;15.55;;;13.13;;
57087;SDS011;42965;52.846;6.614;2024-01-30T09:50:09;20.52;;;14.00;;
57087;SDS011;42965;52.846;6.614;2024-01-30T09:52:40;14.57;;;12.90;;
57087;SDS011;42965;52.846;6.614;2024-01-30T09:55:07;17.73;;;12.77;;
57087;SDS011;42965;52.846;6.614;2024-01-30T09:57:34;15.55;;;12.95;;
57087;SDS011;42965;52.846;6.614;2024-01-30T10:00:05;16.17;;;12.90;;
57087;SDS011;42965;52.846;6.614;2024-01-30T10:02:39;15.70;;;12.73;;
57087;SDS011;42965;52.846;6.614;2024-01-30T10:05:08;16.67;;;13.50;;
57087;SDS011;42965;52.846;6.614;2024-01-30T10:07:35;19.00;;;12.73;;
57087;SDS011;42965;52.846;6.614;2024-01-30T10:10:04;16.80;;;13.35;;
57087;SDS011;42965;52.846;6.614;2024-01-30T10:12:34;18.67;;;12.85;;
57087;SDS011;42965;52.846;6.614;2024-01-30T10:15:01;16.70;;;13.25;;
57087;SDS011;42965;52.846;6.614;2024-01-30T10:17:29;15.32;;;13.35;;
57087;SDS011;42965;52.846;6.614;2024-01-30T10:19:56;14.82;;;12.70;;
57087;SDS011;42965;52.846;6.614;2024-01-30T10:22:22;15.82;;;13.13;;
57087;SDS011;42965;52.846;6.614;2024-01-30T10:24:49;17.23;;;12.95;;
57087;SDS011;42965;52.846;6.614;2024-01-30T10:27:15;17.17;;;12.40;;
57087;SDS011;42965;52.846;6.614;2024-01-30T10:29:41;15.20;;;12.35;;
57087;SDS011;42965;52.846;6.614;2024-01-30T10:32:07;15.57;;;12.77;;
57087;SDS011;42965;52.846;6.614;2024-01-30T10:34:34;15.55;;;12.65;;
57087;SDS011;42965;52.846;6.614;2024-01-30T10:39:38;16.15;;;13.48;;
57087;SDS011;42965;52.846;6.614;2024-01-30T10:42:06;17.58;;;13.10;;
57087;SDS011;42965;52.846;6.614;2024-01-30T10:44:37;14.45;;;12.18;;
57087;SDS011;42965;52.846;6.614;2024-01-30T10:47:11;15.57;;;12.25;;
57087;SDS011;42965;52.846;6.614;2024-01-30T10:49:41;20.65;;;12.07;;
57087;SDS011;42965;52.846;6.614;2024-01-30T10:52:09;15.77;;;11.93;;
57087;SDS011;42965;52.846;6.614;2024-01-30T10:54:36;18.98;;;13.30;;
57087;SDS011;42965;52.846;6.614;2024-01-30T10:57:04;18.65;;;12.95;;
57087;SDS011;42965;52.846;6.614;2024-01-30T10:59:31;15.85;;;13.73;;
57087;SDS011;42965;52.846;6.614;2024-01-30T11:01:58;17.33;;;13.95;;
57087;SDS011;42965;52.846;6.614;2024-01-30T11:04:25;19.25;;;13.82;;
57087;SDS011;42965;52.846;6.614;2024-01-30T11:06:52;17.77;;;13.05;;
57087;SDS011;42965;52.846;6.614;2024-01-30T11:09:19;18.52;;;13.32;;
57087;SDS011;42965;52.846;6.614;2024-01-30T11:11:49;17.80;;;13.30;;
57087;SDS011;42965;52.846;6.614;2024-01-30T11:14:22;17.50;;;13.98;;
57087;SDS011;42965;52.846;6.614;2024-01-30T11:16:49;19.00;;;13.32;;
57087;SDS011;42965;52.846;6.614;2024-01-30T11:19:22;18.33;;;13.43;;
57087;SDS011;42965;52.846;6.614;2024-01-30T11:21:52;16.83;;;13.82;;
57087;SDS011;42965;52.846;6.614;2024-01-30T11:24:20;15.98;;;13.63;;
57087;SDS011;42965;52.846;6.614;2024-01-30T11:26:55;19.90;;;13.73;;
57087;SDS011;42965;52.846;6.614;2024-01-30T11:29:33;16.30;;;13.25;;
57087;SDS011;42965;52.846;6.614;2024-01-30T11:32:00;19.63;;;13.15;;
57087;SDS011;42965;52.846;6.614;2024-01-30T11:34:28;16.23;;;13.23;;
57087;SDS011;42965;52.846;6.614;2024-01-30T11:37:03;21.20;;;13.82;;
57087;SDS011;42965;52.846;6.614;2024-01-30T11:39:35;23.35;;;15.15;;
57087;SDS011;42965;52.846;6.614;2024-01-30T11:42:03;17.70;;;15.27;;
57087;SDS011;42965;52.846;6.614;2024-01-30T11:44:34;20.05;;;15.02;;
57087;SDS011;42965;52.846;6.614;2024-01-30T11:47:00;20.98;;;15.35;;
57087;SDS011;42965;52.846;6.614;2024-01-30T11:49:29;19.58;;;14.70;;
57087;SDS011;42965;52.846;6.614;2024-01-30T11:51:55;18.80;;;15.63;;
57087;SDS011;42965;52.846;6.614;2024-01-30T11:54:21;17.95;;;13.82;;
57087;SDS011;42965;52.846;6.614;2024-01-30T11:56:48;15.20;;;13.63;;
57087;SDS011;42965;52.846;6.614;2024-01-30T11:59:14;17.52;;;14.30;;
57087;SDS011;42965;52.846;6.614;2024-01-30T12:01:40;15.07;;;13.52;;
57087;SDS011;42965;52.846;6.614;2024-01-30T12:04:07;16.55;;;12.13;;
57087;SDS011;42965;52.846;6.614;2024-01-30T12:06:35;15.55;;;12.68;;
57087;SDS011;42965;52.846;6.614;2024-01-30T12:09:02;14.18;;;11.00;;
57087;SDS011;42965;52.846;6.614;2024-01-30T12:11:45;17.05;;;11.85;;
57087;SDS011;42965;52.846;6.614;2024-01-30T12:14:12;16.17;;;10.88;;
57087;SDS011;42965;52.846;6.614;2024-01-30T12:16:39;13.35;;;10.88;;
57087;SDS011;42965;52.846;6.614;2024-01-30T12:19:07;14.75;;;10.75;;
57087;SDS011;42965;52.846;6.614;2024-01-30T12:21:33;15.10;;;11.60;;
57087;SDS011;42965;52.846;6.614;2024-01-30T12:24:00;16.48;;;13.20;;
57087;SDS011;42965;52.846;6.614;2024-01-30T12:26:26;18.25;;;13.13;;
57087;SDS011;42965;52.846;6.614;2024-01-30T12:28:55;20.70;;;11.85;;
57087;SDS011;42965;52.846;6.614;2024-01-30T12:31:27;17.30;;;11.63;;
57087;SDS011;42965;52.846;6.614;2024-01-30T12:33:55;21.80;;;11.80;;
57087;SDS011;42965;52.846;6.614;2024-01-30T12:36:22;14.52;;;9.43;;
57087;SDS011;42965;52.846;6.614;2024-01-30T12:38:50;17.55;;;9.30;;
57087;SDS011;42965;52.846;6.614;2024-01-30T12:41:17;11.90;;;7.68;;
57087;SDS011;42965;52.846;6.614;2024-01-30T12:43:45;15.05;;;8.48;;
57087;SDS011;42965;52.846;6.614;2024-01-30T12:46:16;12.50;;;7.47;;
57087;SDS011;42965;52.846;6.614;2024-01-30T12:48:44;11.27;;;6.03;;
57087;SDS011;42965;52.846;6.614;2024-01-30T12:51:11;13.43;;;6.53;;
57087;SDS011;42965;52.846;6.614;2024-01-30T12:53:37;9.88;;;5.85;;
57087;SDS011;42965;52.846;6.614;2024-01-30T12:56:03;11.60;;;6.15;;
57087;SDS011;42965;52.846;6.614;2024-01-30T12:58:29;12.68;;;5.18;;
57087;SDS011;42965;52.846;6.614;2024-01-30T13:00:56;11.25;;;5.80;;
57087;SDS011;42965;52.846;6.614;2024-01-30T13:03:22;7.32;;;4.20;;
57087;SDS011;42965;52.846;6.614;2024-01-30T13:05:48;6.25;;;3.42;;
57087;SDS011;42965;52.846;6.614;2024-01-30T13:08:14;5.93;;;3.13;;
57087;SDS011;42965;52.846;6.614;2024-01-30T13:10:41;7.35;;;3.63;;
57087;SDS011;42965;52.846;6.614;2024-01-30T13:13:07;8.07;;;3.45;;
57087;SDS011;42965;52.846;6.614;2024-01-30T13:15:35;7.28;;;4.03;;
57087;SDS011;42965;52.846;6.614;2024-01-30T13:18:01;9.25;;;3.70;;
57087;SDS011;42965;52.846;6.614;2024-01-30T13:20:28;11.38;;;4.38;;
57087;SDS011;42965;52.846;6.614;2024-01-30T13:22:54;7.88;;;3.90;;
57087;SDS011;42965;52.846;6.614;2024-01-30T13:25:20;9.65;;;4.47;;
57087;SDS011;42965;52.846;6.614;2024-01-30T13:27:46;5.50;;;3.92;;
57087;SDS011;42965;52.846;6.614;2024-01-30T13:30:13;6.03;;;4.18;;
57087;SDS011;42965;52.846;6.614;2024-01-30T13:32:39;6.90;;;4.20;;
57087;SDS011;42965;52.846;6.614;2024-01-30T13:35:07;9.00;;;4.45;;
57087;SDS011;42965;52.846;6.614;2024-01-30T13:37:33;6.40;;;3.90;;
57087;SDS011;42965;52.846;6.614;2024-01-30T13:40:00;7.90;;;3.50;;
57087;SDS011;42965;52.846;6.614;2024-01-30T13:42:26;7.25;;;2.78;;
57087;SDS011;42965;52.846;6.614;2024-01-30T13:44:52;8.00;;;3.45;;
57087;SDS011;42965;52.846;6.614;2024-01-30T13:47:19;5.53;;;2.38;;
57087;SDS011;42965;52.846;6.614;2024-01-30T13:49:49;4.38;;;3.10;;
57087;SDS011;42965;52.846;6.614;2024-01-30T13:52:16;5.32;;;2.88;;
57087;SDS011;42965;52.846;6.614;2024-01-30T13:54:43;5.38;;;3.05;;
57087;SDS011;42965;52.846;6.614;2024-01-30T13:57:13;7.78;;;3.38;;
57087;SDS011;42965;52.846;6.614;2024-01-30T13:59:41;5.35;;;3.17;;
57087;SDS011;42965;52.846;6.614;2024-01-30T14:02:08;8.07;;;3.60;;
57087;SDS011;42965;52.846;6.614;2024-01-30T14:04:36;8.55;;;3.60;;
57087;SDS011;42965;52.846;6.614;2024-01-30T14:07:04;6.78;;;3.47;;
57087;SDS011;42965;52.846;6.614;2024-01-30T14:09:32;6.40;;;3.25;;
57087;SDS011;42965;52.846;6.614;2024-01-30T14:12:00;4.88;;;3.20;;
57087;SDS011;42965;52.846;6.614;2024-01-30T14:14:27;7.03;;;3.47;;
57087;SDS011;42965;52.846;6.614;2024-01-30T14:16:54;6.03;;;3.20;;
57087;SDS011;42965;52.846;6.614;2024-01-30T14:19:21;5.72;;;3.20;;
57087;SDS011;42965;52.846;6.614;2024-01-30T14:21:48;7.10;;;3.42;;
57087;SDS011;42965;52.846;6.614;2024-01-30T14:24:15;4.38;;;2.38;;
57087;SDS011;42965;52.846;6.614;2024-01-30T14:26:42;5.80;;;2.47;;